sensor_id;sensor_type;location;lat;lon;timestamp;pressure;altitude;pressure_sealevel;temperature;humidity
41632;BME280;37452;51.938;4.624;2022-12-18T00:01:36;80306.22;;;-142.75;100.00
41632;BME280;37452;51.938;4.624;2022-12-18T00:04:04;80300.31;;;-142.75;100.00
41632;BME280;37452;51.938;4.624;2022-12-18T00:06:30;80310.16;;;-142.75;100.00
41632;BME280;37452;51.938;4.624;2022-12-18T00:08:57;80298.34;;;-142.75;100.00
41632;BME280;37452;51.938;4.624;2022-12-18T00:11:25;80282.59;;;-142.75;100.00
41632;BME280;37452;51.938;4.624;2022-12-18T00:13:51;80276.69;;;-142.75;100.00
41632;BME280;37452;51.938;4.624;2022-12-18T00:16:20;80274.72;;;-142.75;100.00
41632;BME280;37452;51.938;4.624;2022-12-18T00:18:47;80280.63;;;-142.75;100.00
41632;BME280;37452;51.938;4.624;2022-12-18T00:21:13;80276.69;;;-142.75;100.00
41632;BME280;37452;51.938;4.624;2022-12-18T00:23:41;80282.59;;;-142.75;100.00
41632;BME280;37452;51.938;4.624;2022-12-18T00:26:30;80294.41;;;-142.75;100.00
41632;BME280;37452;51.938;4.624;2022-12-18T00:29:01;80310.16;;;-142.75;100.00
41632;BME280;37452;51.938;4.624;2022-12-18T00:31:27;80304.25;;;-142.75;100.00
41632;BME280;37452;51.938;4.624;2022-12-18T00:33:55;80298.34;;;-142.75;100.00
41632;BME280;37452;51.938;4.624;2022-12-18T00:36:30;80304.25;;;-142.75;100.00
41632;BME280;37452;51.938;4.624;2022-12-18T00:38:57;80304.25;;;-142.75;100.00
41632;BME280;37452;51.938;4.624;2022-12-18T00:41:23;80298.34;;;-142.75;100.00
41632;BME280;37452;51.938;4.624;2022-12-18T00:44:10;80298.34;;;-142.75;100.00
41632;BME280;37452;51.938;4.624;2022-12-18T00:46:36;80312.16;;;-142.75;100.00
41632;BME280;37452;51.938;4.624;2022-12-18T00:49:01;80308.19;;;-142.75;100.00
41632;BME280;37452;51.938;4.624;2022-12-18T00:51:27;80312.16;;;-142.75;100.00
41632;BME280;37452;51.938;4.624;2022-12-18T00:53:53;80320.03;;;-142.75;100.00
41632;BME280;37452;51.938;4.624;2022-12-18T00:56:19;80314.13;;;-142.75;100.00
41632;BME280;37452;51.938;4.624;2022-12-18T00:58:47;80306.22;;;-142.75;100.00
41632;BME280;37452;51.938;4.624;2022-12-18T01:01:13;80316.09;;;-142.75;100.00
41632;BME280;37452;51.938;4.624;2022-12-18T01:03:39;80300.31;;;-142.75;100.00
41632;BME280;37452;51.938;4.624;2022-12-18T01:06:06;80306.22;;;-142.75;100.00
41632;BME280;37452;51.938;4.624;2022-12-18T01:08:32;80298.34;;;-142.75;100.00
41632;BME280;37452;51.938;4.624;2022-12-18T01:10:58;80314.13;;;-142.75;100.00
41632;BME280;37452;51.938;4.624;2022-12-18T01:13:24;80316.09;;;-142.75;100.00
41632;BME280;37452;51.938;4.624;2022-12-18T01:15:50;80322.00;;;-142.75;100.00
41632;BME280;37452;51.938;4.624;2022-12-18T01:18:15;80325.94;;;-142.75;100.00
41632;BME280;37452;51.938;4.624;2022-12-18T01:20:41;80335.78;;;-142.75;100.00
41632;BME280;37452;51.938;4.624;2022-12-18T01:23:07;80355.50;;;-142.75;100.00
41632;BME280;37452;51.938;4.624;2022-12-18T01:25:32;80369.28;;;-142.75;100.00
41632;BME280;37452;51.938;4.624;2022-12-18T01:27:58;80383.06;;;-142.75;100.00
41632;BME280;37452;51.938;4.624;2022-12-18T01:30:23;80390.97;;;-142.75;100.00
41632;BME280;37452;51.938;4.624;2022-12-18T01:32:49;80385.03;;;-142.75;100.00
41632;BME280;37452;51.938;4.624;2022-12-18T01:35:14;80390.97;;;-142.75;100.00
41632;BME280;37452;51.938;4.624;2022-12-18T01:37:40;80406.72;;;-142.75;100.00
41632;BME280;37452;51.938;4.624;2022-12-18T01:40:06;80408.69;;;-142.75;100.00
41632;BME280;37452;51.938;4.624;2022-12-18T01:42:32;80410.66;;;-142.75;100.00
41632;BME280;37452;51.938;4.624;2022-12-18T01:45:05;80402.78;;;-142.75;100.00
41632;BME280;37452;51.938;4.624;2022-12-18T01:47:41;80410.66;;;-142.75;100.00
41632;BME280;37452;51.938;4.624;2022-12-18T01:52:50;80402.78;;;-142.75;100.00
41632;BME280;37452;51.938;4.624;2022-12-18T01:55:20;80406.72;;;-142.75;100.00
41632;BME280;37452;51.938;4.624;2022-12-18T01:57:47;80408.69;;;-142.75;100.00
41632;BME280;37452;51.938;4.624;2022-12-18T02:00:19;80402.78;;;-142.75;100.00
41632;BME280;37452;51.938;4.624;2022-12-18T02:02:47;80412.63;;;-142.75;100.00
41632;BME280;37452;51.938;4.624;2022-12-18T02:06:10;80410.66;;;-142.75;100.00
41632;BME280;37452;51.938;4.624;2022-12-18T02:11:27;80424.44;;;-142.75;100.00
41632;BME280;37452;51.938;4.624;2022-12-18T02:17:04;80444.16;;;-142.75;100.00
41632;BME280;37452;51.938;4.624;2022-12-18T02:28:02;80426.41;;;-142.75;100.00
41632;BME280;37452;51.938;4.624;2022-12-18T02:30:31;80430.38;;;-142.75;100.00
41632;BME280;37452;51.938;4.624;2022-12-18T02:33:00;80418.53;;;-142.75;100.00
41632;BME280;37452;51.938;4.624;2022-12-18T02:35:29;80414.59;;;-142.75;100.00
41632;BME280;37452;51.938;4.624;2022-12-18T02:37:55;80426.41;;;-142.75;100.00
41632;BME280;37452;51.938;4.624;2022-12-18T02:40:23;80432.34;;;-142.75;100.00
41632;BME280;37452;51.938;4.624;2022-12-18T02:42:49;80432.34;;;-142.75;100.00
41632;BME280;37452;51.938;4.624;2022-12-18T02:45:15;80442.19;;;-142.75;100.00
41632;BME280;37452;51.938;4.624;2022-12-18T02:47:43;80438.25;;;-142.75;100.00
41632;BME280;37452;51.938;4.624;2022-12-18T02:50:28;80438.25;;;-142.75;100.00
41632;BME280;37452;51.938;4.624;2022-12-18T02:58:58;80430.38;;;-142.75;100.00
41632;BME280;37452;51.938;4.624;2022-12-18T03:01:38;80426.41;;;-142.75;100.00
41632;BME280;37452;51.938;4.624;2022-12-18T03:04:38;80442.19;;;-142.75;100.00
41632;BME280;37452;51.938;4.624;2022-12-18T03:07:10;80440.22;;;-142.75;100.00
41632;BME280;37452;51.938;4.624;2022-12-18T03:09:40;80428.38;;;-142.75;100.00
41632;BME280;37452;51.938;4.624;2022-12-18T03:12:30;80436.28;;;-142.75;100.00
41632;BME280;37452;51.938;4.624;2022-12-18T03:15:11;80434.31;;;-142.75;100.00
41632;BME280;37452;51.938;4.624;2022-12-18T03:17:42;80422.47;;;-142.75;100.00
41632;BME280;37452;51.938;4.624;2022-12-18T03:20:13;80422.47;;;-142.75;100.00
41632;BME280;37452;51.938;4.624;2022-12-18T03:22:41;80434.31;;;-142.75;100.00
41632;BME280;37452;51.938;4.624;2022-12-18T03:25:11;80440.22;;;-142.75;100.00
41632;BME280;37452;51.938;4.624;2022-12-18T03:27:42;80452.03;;;-142.75;100.00
41632;BME280;37452;51.938;4.624;2022-12-18T03:30:12;80432.34;;;-142.75;100.00
41632;BME280;37452;51.938;4.624;2022-12-18T03:32:50;80434.31;;;-142.75;100.00
41632;BME280;37452;51.938;4.624;2022-12-18T03:35:21;80459.91;;;-142.75;100.00
41632;BME280;37452;51.938;4.624;2022-12-18T03:37:48;80446.13;;;-142.75;100.00
41632;BME280;37452;51.938;4.624;2022-12-18T03:40:13;80448.09;;;-142.75;100.00
41632;BME280;37452;51.938;4.624;2022-12-18T03:42:51;80434.31;;;-142.75;100.00
41632;BME280;37452;51.938;4.624;2022-12-18T03:45:38;80418.53;;;-142.75;100.00
41632;BME280;37452;51.938;4.624;2022-12-18T03:48:17;80434.31;;;-142.75;100.00
41632;BME280;37452;51.938;4.624;2022-12-18T03:51:06;80430.38;;;-142.75;100.00
41632;BME280;37452;51.938;4.624;2022-12-18T03:53:45;80430.38;;;-142.75;100.00
41632;BME280;37452;51.938;4.624;2022-12-18T03:56:13;80402.78;;;-142.75;100.00
41632;BME280;37452;51.938;4.624;2022-12-18T03:58:41;80414.59;;;-142.75;100.00
41632;BME280;37452;51.938;4.624;2022-12-18T04:01:09;80418.53;;;-142.75;100.00
41632;BME280;37452;51.938;4.624;2022-12-18T04:03:37;80408.69;;;-142.75;100.00
41632;BME280;37452;51.938;4.624;2022-12-18T04:06:03;80392.94;;;-142.75;100.00
41632;BME280;37452;51.938;4.624;2022-12-18T04:08:30;80387.00;;;-142.75;100.00
41632;BME280;37452;51.938;4.624;2022-12-18T04:10:56;80410.66;;;-142.75;100.00
41632;BME280;37452;51.938;4.624;2022-12-18T04:13:24;80394.91;;;-142.75;100.00
41632;BME280;37452;51.938;4.624;2022-12-18T04:15:52;80398.84;;;-142.75;100.00
41632;BME280;37452;51.938;4.624;2022-12-18T04:18:18;80436.28;;;-142.75;100.00
41632;BME280;37452;51.938;4.624;2022-12-18T04:20:43;80424.44;;;-142.75;100.00
41632;BME280;37452;51.938;4.624;2022-12-18T04:23:09;80422.47;;;-142.75;100.00
41632;BME280;37452;51.938;4.624;2022-12-18T04:25:34;80428.38;;;-142.75;100.00
41632;BME280;37452;51.938;4.624;2022-12-18T04:28:00;80430.38;;;-142.75;100.00
41632;BME280;37452;51.938;4.624;2022-12-18T04:30:25;80432.34;;;-142.75;100.00
41632;BME280;37452;51.938;4.624;2022-12-18T04:32:51;80446.13;;;-142.75;100.00
41632;BME280;37452;51.938;4.624;2022-12-18T04:35:16;80461.88;;;-142.75;100.00
41632;BME280;37452;51.938;4.624;2022-12-18T04:37:42;80442.19;;;-142.75;100.00
41632;BME280;37452;51.938;4.624;2022-12-18T04:40:08;80420.50;;;-142.75;100.00
41632;BME280;37452;51.938;4.624;2022-12-18T04:42:33;80434.31;;;-142.75;100.00
41632;BME280;37452;51.938;4.624;2022-12-18T04:44:59;80444.16;;;-142.75;100.00
41632;BME280;37452;51.938;4.624;2022-12-18T04:47:24;80457.94;;;-142.75;100.00
41632;BME280;37452;51.938;4.624;2022-12-18T04:49:50;80448.09;;;-142.75;100.00
41632;BME280;37452;51.938;4.624;2022-12-18T04:52:15;80446.13;;;-142.75;100.00
41632;BME280;37452;51.938;4.624;2022-12-18T04:54:41;80444.16;;;-142.75;100.00
41632;BME280;37452;51.938;4.624;2022-12-18T04:57:06;80416.56;;;-142.75;100.00
41632;BME280;37452;51.938;4.624;2022-12-18T04:59:32;80418.53;;;-142.75;100.00
41632;BME280;37452;51.938;4.624;2022-12-18T05:01:57;80398.84;;;-142.75;100.00
41632;BME280;37452;51.938;4.624;2022-12-18T05:04:23;80390.97;;;-142.75;100.00
41632;BME280;37452;51.938;4.624;2022-12-18T05:06:48;80387.00;;;-142.75;100.00
41632;BME280;37452;51.938;4.624;2022-12-18T05:09:14;80383.06;;;-142.75;100.00
41632;BME280;37452;51.938;4.624;2022-12-18T05:11:39;80408.69;;;-142.75;100.00
41632;BME280;37452;51.938;4.624;2022-12-18T05:14:05;80406.72;;;-142.75;100.00
41632;BME280;37452;51.938;4.624;2022-12-18T05:16:31;80410.66;;;-142.75;100.00
41632;BME280;37452;51.938;4.624;2022-12-18T05:18:56;80375.19;;;-142.75;100.00
41632;BME280;37452;51.938;4.624;2022-12-18T05:21:22;80373.22;;;-142.75;100.00
41632;BME280;37452;51.938;4.624;2022-12-18T05:23:47;80367.31;;;-142.75;100.00
41632;BME280;37452;51.938;4.624;2022-12-18T05:26:18;80371.25;;;-142.75;100.00
41632;BME280;37452;51.938;4.624;2022-12-18T05:28:43;80379.13;;;-142.75;100.00
41632;BME280;37452;51.938;4.624;2022-12-18T05:31:09;80371.25;;;-142.75;100.00
41632;BME280;37452;51.938;4.624;2022-12-18T05:33:35;80363.38;;;-142.75;100.00
41632;BME280;37452;51.938;4.624;2022-12-18T05:36:01;80373.22;;;-142.75;100.00
41632;BME280;37452;51.938;4.624;2022-12-18T05:38:29;80406.72;;;-142.75;100.00
41632;BME280;37452;51.938;4.624;2022-12-18T05:40:55;80390.97;;;-142.75;100.00
41632;BME280;37452;51.938;4.624;2022-12-18T05:43:22;80410.66;;;-142.75;100.00
41632;BME280;37452;51.938;4.624;2022-12-18T05:45:48;80418.53;;;-142.75;100.00
41632;BME280;37452;51.938;4.624;2022-12-18T05:48:15;80416.56;;;-142.75;100.00
41632;BME280;37452;51.938;4.624;2022-12-18T05:50:42;80410.66;;;-142.75;100.00
41632;BME280;37452;51.938;4.624;2022-12-18T05:53:09;80422.47;;;-142.75;100.00
41632;BME280;37452;51.938;4.624;2022-12-18T05:55:36;80430.38;;;-142.75;100.00
41632;BME280;37452;51.938;4.624;2022-12-18T05:58:04;80448.09;;;-142.75;100.00
41632;BME280;37452;51.938;4.624;2022-12-18T06:00:30;80444.16;;;-142.75;100.00
41632;BME280;37452;51.938;4.624;2022-12-18T06:02:57;80454.00;;;-142.75;100.00
41632;BME280;37452;51.938;4.624;2022-12-18T06:05:23;80455.97;;;-142.75;100.00
41632;BME280;37452;51.938;4.624;2022-12-18T06:07:48;80469.78;;;-142.75;100.00
41632;BME280;37452;51.938;4.624;2022-12-18T06:10:14;80481.59;;;-142.75;100.00
41632;BME280;37452;51.938;4.624;2022-12-18T06:12:39;80477.66;;;-142.75;100.00
41632;BME280;37452;51.938;4.624;2022-12-18T06:15:05;80493.41;;;-142.75;100.00
41632;BME280;37452;51.938;4.624;2022-12-18T06:17:32;80485.53;;;-142.75;100.00
41632;BME280;37452;51.938;4.624;2022-12-18T06:19:57;80481.59;;;-142.75;100.00
41632;BME280;37452;51.938;4.624;2022-12-18T06:22:23;80475.69;;;-142.75;100.00
41632;BME280;37452;51.938;4.624;2022-12-18T06:24:49;80481.59;;;-142.75;100.00
41632;BME280;37452;51.938;4.624;2022-12-18T06:27:15;80485.53;;;-142.75;100.00
41632;BME280;37452;51.938;4.624;2022-12-18T06:29:40;80495.38;;;-142.75;100.00
41632;BME280;37452;51.938;4.624;2022-12-18T06:32:06;80487.50;;;-142.75;100.00
41632;BME280;37452;51.938;4.624;2022-12-18T06:34:32;80475.69;;;-142.75;100.00
41632;BME280;37452;51.938;4.624;2022-12-18T06:36:58;80499.31;;;-142.75;100.00
41632;BME280;37452;51.938;4.624;2022-12-18T06:39:24;80524.94;;;-142.75;100.00
41632;BME280;37452;51.938;4.624;2022-12-18T06:41:52;80519.03;;;-142.75;100.00
41632;BME280;37452;51.938;4.624;2022-12-18T06:44:17;80511.16;;;-142.75;100.00
41632;BME280;37452;51.938;4.624;2022-12-18T06:46:43;80522.97;;;-142.75;100.00
41632;BME280;37452;51.938;4.624;2022-12-18T06:49:08;80528.88;;;-142.75;100.00
41632;BME280;37452;51.938;4.624;2022-12-18T06:51:35;80524.94;;;-142.75;100.00
41632;BME280;37452;51.938;4.624;2022-12-18T06:54:00;80521.00;;;-142.75;100.00
41632;BME280;37452;51.938;4.624;2022-12-18T06:56:26;80495.38;;;-142.75;100.00
41632;BME280;37452;51.938;4.624;2022-12-18T06:58:52;80505.25;;;-142.75;100.00
41632;BME280;37452;51.938;4.624;2022-12-18T07:01:17;80509.19;;;-142.75;100.00
41632;BME280;37452;51.938;4.624;2022-12-18T07:03:43;80495.38;;;-142.75;100.00
41632;BME280;37452;51.938;4.624;2022-12-18T07:06:17;80491.44;;;-142.75;100.00
41632;BME280;37452;51.938;4.624;2022-12-18T07:08:43;80493.41;;;-142.75;100.00
41632;BME280;37452;51.938;4.624;2022-12-18T07:11:09;80497.34;;;-142.75;100.00
41632;BME280;37452;51.938;4.624;2022-12-18T07:13:34;80497.34;;;-142.75;100.00
41632;BME280;37452;51.938;4.624;2022-12-18T07:16:09;80499.31;;;-142.75;100.00
41632;BME280;37452;51.938;4.624;2022-12-18T07:18:35;80505.25;;;-142.75;100.00
41632;BME280;37452;51.938;4.624;2022-12-18T07:21:04;80497.34;;;-142.75;100.00
41632;BME280;37452;51.938;4.624;2022-12-18T07:23:31;80469.78;;;-142.75;100.00
41632;BME280;37452;51.938;4.624;2022-12-18T07:26:01;80457.94;;;-142.75;100.00
41632;BME280;37452;51.938;4.624;2022-12-18T07:28:27;80448.09;;;-142.75;100.00
41632;BME280;37452;51.938;4.624;2022-12-18T07:30:52;80446.13;;;-142.75;100.00
41632;BME280;37452;51.938;4.624;2022-12-18T07:33:18;80446.13;;;-142.75;100.00
41632;BME280;37452;51.938;4.624;2022-12-18T07:35:43;80426.41;;;-142.75;100.00
41632;BME280;37452;51.938;4.624;2022-12-18T07:38:09;80452.03;;;-142.75;100.00
41632;BME280;37452;51.938;4.624;2022-12-18T07:40:34;80438.25;;;-142.75;100.00
41632;BME280;37452;51.938;4.624;2022-12-18T07:43:00;80457.94;;;-142.75;100.00
41632;BME280;37452;51.938;4.624;2022-12-18T07:45:25;80467.81;;;-142.75;100.00
41632;BME280;37452;51.938;4.624;2022-12-18T07:47:50;80469.78;;;-142.75;100.00
41632;BME280;37452;51.938;4.624;2022-12-18T07:50:16;80461.88;;;-142.75;100.00
41632;BME280;37452;51.938;4.624;2022-12-18T07:52:41;80448.09;;;-142.75;100.00
41632;BME280;37452;51.938;4.624;2022-12-18T07:55:07;80436.28;;;-142.75;100.00
41632;BME280;37452;51.938;4.624;2022-12-18T07:57:32;80440.22;;;-142.75;100.00
41632;BME280;37452;51.938;4.624;2022-12-18T07:59:58;80428.38;;;-142.75;100.00
41632;BME280;37452;51.938;4.624;2022-12-18T08:02:23;80424.44;;;-142.75;100.00
41632;BME280;37452;51.938;4.624;2022-12-18T08:04:49;80422.47;;;-142.75;100.00
41632;BME280;37452;51.938;4.624;2022-12-18T08:07:14;80418.53;;;-142.75;100.00
41632;BME280;37452;51.938;4.624;2022-12-18T08:09:40;80406.72;;;-142.75;100.00
41632;BME280;37452;51.938;4.624;2022-12-18T08:12:06;80416.56;;;-142.75;100.00
41632;BME280;37452;51.938;4.624;2022-12-18T08:14:31;80416.56;;;-142.75;100.00
41632;BME280;37452;51.938;4.624;2022-12-18T08:16:56;80396.88;;;-142.75;100.00
41632;BME280;37452;51.938;4.624;2022-12-18T08:19:22;80385.03;;;-142.75;100.00
41632;BME280;37452;51.938;4.624;2022-12-18T08:21:48;80387.00;;;-142.75;100.00
41632;BME280;37452;51.938;4.624;2022-12-18T08:24:13;80379.13;;;-142.75;100.00
41632;BME280;37452;51.938;4.624;2022-12-18T08:26:39;80367.31;;;-142.75;100.00
41632;BME280;37452;51.938;4.624;2022-12-18T08:29:04;80347.59;;;-142.75;100.00
41632;BME280;37452;51.938;4.624;2022-12-18T08:31:30;80343.66;;;-142.75;100.00
41632;BME280;37452;51.938;4.624;2022-12-18T08:33:57;80333.81;;;-142.75;100.00
41632;BME280;37452;51.938;4.624;2022-12-18T08:36:23;80341.69;;;-142.75;100.00
41632;BME280;37452;51.938;4.624;2022-12-18T08:38:49;80339.72;;;-142.75;100.00
41632;BME280;37452;51.938;4.624;2022-12-18T08:41:16;80349.56;;;-142.75;100.00
41632;BME280;37452;51.938;4.624;2022-12-18T08:43:41;80349.56;;;-142.75;100.00
41632;BME280;37452;51.938;4.624;2022-12-18T08:46:27;80361.41;;;-142.75;100.00
41632;BME280;37452;51.938;4.624;2022-12-18T08:48:56;80355.50;;;-142.75;100.00
41632;BME280;37452;51.938;4.624;2022-12-18T08:51:21;80357.47;;;-142.75;100.00
41632;BME280;37452;51.938;4.624;2022-12-18T08:53:47;80343.66;;;-142.75;100.00
41632;BME280;37452;51.938;4.624;2022-12-18T08:56:13;80359.44;;;-142.75;100.00
41632;BME280;37452;51.938;4.624;2022-12-18T08:58:39;80365.34;;;-142.75;100.00
41632;BME280;37452;51.938;4.624;2022-12-18T09:01:07;80375.19;;;-142.75;100.00
41632;BME280;37452;51.938;4.624;2022-12-18T09:03:34;80371.25;;;-142.75;100.00
41632;BME280;37452;51.938;4.624;2022-12-18T09:06:00;80371.25;;;-142.75;100.00
41632;BME280;37452;51.938;4.624;2022-12-18T09:08:26;80363.38;;;-142.75;100.00
41632;BME280;37452;51.938;4.624;2022-12-18T09:10:52;80343.66;;;-142.75;100.00
41632;BME280;37452;51.938;4.624;2022-12-18T09:13:18;80335.78;;;-142.75;100.00
41632;BME280;37452;51.938;4.624;2022-12-18T09:15:52;80333.81;;;-142.75;100.00
41632;BME280;37452;51.938;4.624;2022-12-18T09:18:20;80327.91;;;-142.75;100.00
41632;BME280;37452;51.938;4.624;2022-12-18T09:20:46;80316.09;;;-142.75;100.00
41632;BME280;37452;51.938;4.624;2022-12-18T09:23:12;80316.09;;;-142.75;100.00
41632;BME280;37452;51.938;4.624;2022-12-18T09:25:38;80282.59;;;-142.75;100.00
41632;BME280;37452;51.938;4.624;2022-12-18T09:28:05;80260.91;;;-142.75;100.00
41632;BME280;37452;51.938;4.624;2022-12-18T09:30:31;80260.91;;;-142.75;100.00
41632;BME280;37452;51.938;4.624;2022-12-18T09:32:58;80308.19;;;-142.75;100.00
41632;BME280;37452;51.938;4.624;2022-12-18T09:35:24;80302.28;;;-142.75;100.00
41632;BME280;37452;51.938;4.624;2022-12-18T09:37:50;80288.50;;;-142.75;100.00
41632;BME280;37452;51.938;4.624;2022-12-18T09:40:21;80253.03;;;-142.75;100.00
41632;BME280;37452;51.938;4.624;2022-12-18T09:42:53;80253.03;;;-142.75;100.00
41632;BME280;37452;51.938;4.624;2022-12-18T09:45:21;80256.97;;;-142.75;100.00
41632;BME280;37452;51.938;4.624;2022-12-18T09:47:48;80258.94;;;-142.75;100.00
41632;BME280;37452;51.938;4.624;2022-12-18T09:50:31;80256.97;;;-142.75;100.00
41632;BME280;37452;51.938;4.624;2022-12-18T09:53:01;80249.09;;;-142.75;100.00
41632;BME280;37452;51.938;4.624;2022-12-18T09:55:35;80241.22;;;-142.75;100.00
41632;BME280;37452;51.938;4.624;2022-12-18T09:58:20;80249.09;;;-142.75;100.00
41632;BME280;37452;51.938;4.624;2022-12-18T10:00:52;80243.19;;;-142.75;100.00
41632;BME280;37452;51.938;4.624;2022-12-18T10:03:18;80217.56;;;-142.75;100.00
41632;BME280;37452;51.938;4.624;2022-12-18T10:06:13;80203.78;;;-142.75;100.00
41632;BME280;37452;51.938;4.624;2022-12-18T10:08:56;80205.75;;;-142.75;100.00
41632;BME280;37452;51.938;4.624;2022-12-18T10:11:36;80211.66;;;-142.75;100.00
41632;BME280;37452;51.938;4.624;2022-12-18T10:17:02;80203.78;;;-142.75;100.00
41632;BME280;37452;51.938;4.624;2022-12-18T10:19:42;80182.09;;;-142.75;100.00
41632;BME280;37452;51.938;4.624;2022-12-18T10:27:43;80148.59;;;-142.75;100.00
41632;BME280;37452;51.938;4.624;2022-12-18T10:30:14;80148.59;;;-142.75;100.00
41632;BME280;37452;51.938;4.624;2022-12-18T10:32:41;80128.91;;;-142.75;100.00
41632;BME280;37452;51.938;4.624;2022-12-18T10:40:32;80138.75;;;-142.75;100.00
41632;BME280;37452;51.938;4.624;2022-12-18T10:43:14;80134.81;;;-142.75;100.00
41632;BME280;37452;51.938;4.624;2022-12-18T10:45:40;80123.00;;;-142.75;100.00
41632;BME280;37452;51.938;4.624;2022-12-18T10:48:20;80103.28;;;-142.75;100.00
41632;BME280;37452;51.938;4.624;2022-12-18T10:50:48;80091.47;;;-142.75;100.00
41632;BME280;37452;51.938;4.624;2022-12-18T10:53:22;80095.41;;;-142.75;100.00
41632;BME280;37452;51.938;4.624;2022-12-18T10:55:48;80085.56;;;-142.75;100.00
41632;BME280;37452;51.938;4.624;2022-12-18T11:06:21;80040.25;;;-142.75;100.00
41632;BME280;37452;51.938;4.624;2022-12-18T11:09:04;80059.94;;;-142.75;100.00
41632;BME280;37452;51.938;4.624;2022-12-18T11:11:31;80046.16;;;-142.75;100.00
41632;BME280;37452;51.938;4.624;2022-12-18T11:14:16;80042.22;;;-142.75;100.00
41632;BME280;37452;51.938;4.624;2022-12-18T11:16:47;80028.44;;;-142.75;100.00
41632;BME280;37452;51.938;4.624;2022-12-18T11:19:40;80016.59;;;-142.75;100.00
41632;BME280;37452;51.938;4.624;2022-12-18T11:22:21;80006.75;;;-142.75;100.00
41632;BME280;37452;51.938;4.624;2022-12-18T11:27:48;79977.19;;;-142.75;100.00
41632;BME280;37452;51.938;4.624;2022-12-18T11:30:22;79971.28;;;-142.75;100.00
41632;BME280;37452;51.938;4.624;2022-12-18T11:33:13;79965.38;;;-142.75;100.00
41632;BME280;37452;51.938;4.624;2022-12-18T11:35:55;79985.09;;;-142.75;100.00
41632;BME280;37452;51.938;4.624;2022-12-18T11:38:39;79959.47;;;-142.75;100.00
41632;BME280;37452;51.938;4.624;2022-12-18T11:41:38;79959.47;;;-142.75;100.00
41632;BME280;37452;51.938;4.624;2022-12-18T11:44:35;79955.53;;;-142.75;100.00
41632;BME280;37452;51.938;4.624;2022-12-18T11:47:10;79949.63;;;-142.75;100.00
41632;BME280;37452;51.938;4.624;2022-12-18T11:49:41;79933.84;;;-142.75;100.00
41632;BME280;37452;51.938;4.624;2022-12-18T11:52:18;79949.63;;;-142.75;100.00
41632;BME280;37452;51.938;4.624;2022-12-18T11:54:45;79945.69;;;-142.75;100.00
41632;BME280;37452;51.938;4.624;2022-12-18T11:57:34;79927.94;;;-142.75;100.00
41632;BME280;37452;51.938;4.624;2022-12-18T12:00:12;79916.13;;;-142.75;100.00
41632;BME280;37452;51.938;4.624;2022-12-18T12:06:13;79912.19;;;-142.75;100.00
41632;BME280;37452;51.938;4.624;2022-12-18T12:08:33;79894.47;;;-142.75;100.00
41632;BME280;37452;51.938;4.624;2022-12-18T12:19:32;79896.44;;;-142.75;100.00
41632;BME280;37452;51.938;4.624;2022-12-18T12:27:24;79880.66;;;-142.75;100.00
41632;BME280;37452;51.938;4.624;2022-12-18T12:30:05;79868.84;;;-142.75;100.00
41632;BME280;37452;51.938;4.624;2022-12-18T12:38:16;79835.34;;;-142.75;100.00
41632;BME280;37452;51.938;4.624;2022-12-18T12:41:06;79835.34;;;-142.75;100.00
41632;BME280;37452;51.938;4.624;2022-12-18T12:43:56;79845.22;;;-142.75;100.00
41632;BME280;37452;51.938;4.624;2022-12-18T12:46:23;79831.41;;;-142.75;100.00
41632;BME280;37452;51.938;4.624;2022-12-18T12:48:56;79817.63;;;-142.75;100.00
41632;BME280;37452;51.938;4.624;2022-12-18T12:51:29;79817.63;;;-142.75;100.00
41632;BME280;37452;51.938;4.624;2022-12-18T12:53:58;79817.63;;;-142.75;100.00
41632;BME280;37452;51.938;4.624;2022-12-18T12:56:53;79815.66;;;-142.75;100.00
41632;BME280;37452;51.938;4.624;2022-12-18T12:59:29;79803.84;;;-142.75;100.00
41632;BME280;37452;51.938;4.624;2022-12-18T13:04:42;79780.19;;;-142.75;100.00
41632;BME280;37452;51.938;4.624;2022-12-18T13:13:08;79770.34;;;-142.75;100.00
41632;BME280;37452;51.938;4.624;2022-12-18T13:20:44;79778.22;;;-142.75;100.00
41632;BME280;37452;51.938;4.624;2022-12-18T13:25:45;79748.66;;;-142.75;100.00
41632;BME280;37452;51.938;4.624;2022-12-18T13:28:15;79752.63;;;-142.75;100.00
41632;BME280;37452;51.938;4.624;2022-12-18T13:30:43;79744.72;;;-142.75;100.00
41632;BME280;37452;51.938;4.624;2022-12-18T13:41:00;79723.06;;;-142.75;100.00
41632;BME280;37452;51.938;4.624;2022-12-18T13:43:44;79721.09;;;-142.75;100.00
41632;BME280;37452;51.938;4.624;2022-12-18T13:46:28;79715.19;;;-142.75;100.00
41632;BME280;37452;51.938;4.624;2022-12-18T13:51:24;79697.44;;;-142.75;100.00
41632;BME280;37452;51.938;4.624;2022-12-18T13:54:12;79701.38;;;-142.75;100.00
41632;BME280;37452;51.938;4.624;2022-12-18T13:56:43;79701.38;;;-142.75;100.00
41632;BME280;37452;51.938;4.624;2022-12-18T13:59:19;79689.56;;;-142.75;100.00
41632;BME280;37452;51.938;4.624;2022-12-18T14:01:56;79687.59;;;-142.75;100.00
41632;BME280;37452;51.938;4.624;2022-12-18T14:04:25;79687.59;;;-142.75;100.00
41632;BME280;37452;51.938;4.624;2022-12-18T14:06:56;79683.66;;;-142.75;100.00
41632;BME280;37452;51.938;4.624;2022-12-18T14:09:28;79691.53;;;-142.75;100.00
41632;BME280;37452;51.938;4.624;2022-12-18T14:11:55;79679.72;;;-142.75;100.00
41632;BME280;37452;51.938;4.624;2022-12-18T14:14:44;79677.75;;;-142.75;100.00
41632;BME280;37452;51.938;4.624;2022-12-18T14:17:11;79673.81;;;-142.75;100.00
41632;BME280;37452;51.938;4.624;2022-12-18T14:19:42;79673.81;;;-142.75;100.00
41632;BME280;37452;51.938;4.624;2022-12-18T14:22:20;79662.00;;;-142.75;100.00